Weather observations for the past three days for
Majuro Atoll - NWS Office
Imperial (Metric)
Date Time (+12) Wind (mph) Vis. (mi.) Weather Sky Cond. Temperature (ºF) Relative Humidity Wind Chill (°F) Heat Index (°F) Pressure Precipitation (in)
Air Dwpt 6 hour altimeter (in) sea level (mb) 1 hr 3 hr 6 hr
Max. Min.
05 06:51 E 15 15.00 Overcast FEW015 SCT050 BKN120 OVC300 83.7 75.9 78% 92 29.77 1008.0
05 05:51 E 8 15.00 Overcast FEW015 SCT050 BKN120 OVC300 83.5 75.6 84.7 83.5 77% 92 29.75 1007.6 0.02
05 04:52 NE 10 15.00 Overcast FEW014 SCT045 BKN120 OVC300 84.6 77 78% 95 29.76 1007.6
05 03:51 E 8 15.00 Overcast FEW014TCU SCT050 BKN120 OVC300 84.4 76.6 78% 94 29.75 1007.4
05 02:53 NE 10 15.00 Overcast FEW015 SCT050 BKN120 OVC300 84.7 77.2 78% 95 29.77 1008.0
05 01:53 NE 10 15.00 Overcast FEW015 SCT050 BKN120 OVC300 84.7 77.2 78% 95 29.77 1008.0
05 00:52 NE 6 15.00 Overcast FEW015 SCT050 BKN120 OVC300 84.4 77 79% 94 29.79 1008.7
04 23:53 NE 6 15.00 Overcast FEW015 SCT050 BKN120 OVC300 83.8 79.2 84.9 82.8 86% 96 29.8 1009.1
04 22:52 NE 7 15.00 Overcast FEW015 SCT050 BKN120 OVC300 83.3 77.5 83% 93 29.83 1010.1
04 21:50 NE 6 15.00 Mostly Cloudy FEW015 SCT050 BKN300 82.8 75.9 80% 91 29.8 1009.3
04 20:53 NE 7 15.00 Overcast FEW014TCU SCT050 OVC300 84.7 76.1 75% 94 29.79 1008.9
04 19:50 NE 5 15.00 Mostly Cloudy FEW015 SCT050 BKN300 84.6 75.9 75% 94 29.79 1008.8
04 18:50 E 7 15.00 Mostly Cloudy FEW015 SCT050 BKN300 84.7 76.1 75% 94 29.77 1008.0
04 17:50 NE 10 15.00 Partly Cloudy FEW015 SCT300 84.9 76.6 86.2 80.6 76% 95 29.73 1006.9
04 16:50 NE 8 15.00 Partly Cloudy FEW015 SCT300 86.7 76.6 72% 98 29.72 1006.4
04 15:57 NE 8 15.00 Partly Cloudy FEW015 SCT300 87.1 76.8 72% 99 29.71 1006.1
04 14:58 E 7 15.00 Partly Cloudy FEW015 SCT300 87.8 77.7 72% 101 29.72 1006.3
04 10:58 E 16 15.00 Mostly Cloudy FEW014 SCT050 BKN120 BKN300 86.2 77.4 75% 98 29.81 1009.4
04 09:58 NE 18 15.00 Mostly Cloudy FEW014 SCT050 BKN110 BKN300 85.3 77.7 78% 97 29.82 1009.7
04 08:58 NE 12 15.00 Mostly Cloudy FEW014 SCT050 BKN110 BKN300 86 77.4 75% 98 29.82 1009.7
04 07:55 NE 12 15.00 Mostly Cloudy FEW014 SCT050 BKN110 BKN300 83.3 77 81% 93 29.81 1009.5
04 06:51 E 5 15.00 Overcast FEW014TCU SCT050 BKN120 OVC300 81.5 75.6 82% 88 29.78 1008.4
04 05:51 E 6 14.00 Light Rain SCT014 SCT045 BKN110 BKN130 80.6 75.6 84.7 80.6 85% 86 29.77 1008.3 0.43
04 04:50 E 6 15.00 Overcast FEW014TCU SCT050 BKN120 OVC300 83.8 76.3 78% 93 29.78 1008.3
04 03:50 E 7 15.00 Overcast FEW015 SCT050 BKN120 OVC300 84.4 75.2 74% 93 29.76 1007.6
04 02:50 E 7 15.00 Overcast FEW015 SCT050 BKN120 OVC300 84.6 74.8 73% 93 29.76 1007.7
04 01:54 E 8 15.00 Overcast FEW015 SCT050 BKN120 OVC300 84.6 75.4 74% 93 29.79 1008.7
04 00:51 E 7 15.00 Overcast FEW015 SCT050 BKN120 OVC300 84.7 75.4 74% 93 29.81 1009.4
03 23:50 E 8 15.00 Overcast FEW015 SCT050 BKN120 OVC300 84.7 75.7 84.7 83.8 75% 94 29.82 1009.8
03 22:50 E 7 15.00 Overcast FEW015 SCT050 BKN120 OVC300 84.7 75.2 73% 93 29.83 1010.0
03 21:50 E 7 15.00 Overcast FEW015 SCT050 BKN120 OVC300 84.4 76.6 78% 94 29.82 1010.0
03 20:50 E 10 15.00 Overcast FEW015 SCT050 BKN120 OVC300 84.2 75.9 76% 93 29.82 1009.7
03 19:50 E 5 15.00 Overcast FEW015 SCT050 BKN120 OVC300 84.2 76.6 78% 94 29.8 1009.1
03 18:50 E 5 15.00 Overcast FEW015 SCT050 BKN120 OVC300 83.8 76.3 78% 93 29.8 1009.1
03 17:54 E 8 15.00 Overcast FEW015 SCT050 BKN120 OVC300 83.8 76.5 88.3 83.8 79% 93 29.77 1008.0
03 16:50 E 8 15.00 Overcast FEW015 SCT050 BKN120 OVC300 85.3 77.5 78% 97 29.74 1007.2
03 15:50 E 7 15.00 Overcast FEW015 SCT050 BKN120 OVC300 84.7 77.4 79% 95 29.74 1007.1
03 14:50 E 7 15.00 Overcast FEW015 SCT050 BKN120 OVC300 85.1 77.5 78% 96 29.74 1007.1
03 13:51 E 9 15.00 Overcast FEW015 SCT050 BKN120 OVC300 88.3 78.1 72% 102 29.76 1007.6
03 12:52 E 8 15.00 Overcast FEW015 SCT050 BKN120 OVC300 86.7 77 73% 98 29.78 1008.4
03 11:55 E 9 15.00 Overcast FEW015 SCT050 BKN120 OVC300 86 77 86 82.8 75% 97 29.8 1009.2
03 10:53 NE 10 15.00 Overcast FEW014 SCT050 BKN120 OVC300 84.9 78.3 81% 97 29.82 1009.9
03 09:52 NE 8 15.00 Overcast FEW015 SCT050 BKN120 OVC300 85.3 78.4 80% 98 29.82 1009.9
03 08:57 NE 9 15.00 Overcast FEW015 SCT050 BKN120 OVC300 84.6 78.4 82% 96 29.82 1009.8
03 07:53 E 6 15.00 Overcast FEW015 SCT050 BKN120 OVC300 83.7 77 80% 93 29.8 1009.1
03 06:51 Vrbl 3 15.00 Overcast FEW015 SCT050 BKN120 OVC300 82.8 76.3 81% 91 29.78 1008.4
03 05:52 Vrbl 3 15.00 Overcast FEW015 SCT050 BKN120 OVC300 82.8 75.9 82.8 82 80% 91 29.77 1008.1
03 04:52 Vrbl 3 15.00 Overcast FEW015 SCT050 BKN120 OVC300 82.6 76.3 81% 91 29.77 1008.1
03 03:51 Calm 15.00 Overcast FEW015 SCT050 BKN120 OVC300 82.6 76.3 81% 91 29.77 1008.1
03 02:52 Calm 15.00 Overcast FEW015 SCT050 BKN120 OVC300 82 76.1 82% 89 29.76 1007.8
03 01:51 Calm 15.00 Overcast FEW015 SCT050 BKN120 OVC300 82.4 76.5 82% 90 29.76 1007.9
03 00:53 Vrbl 3 15.00 Overcast FEW015 SCT050 BKN120 OVC300 82.6 77.2 84% 91 29.76 1007.9
02 23:51 Vrbl 3 15.00 Overcast FEW015 SCT050 BKN120 OVC300 82.8 76.5 83.3 82.2 81% 91 29.78 1008.6
02 22:50 Vrbl 3 15.00 Overcast FEW015 SCT050 BKN120 OVC300 82.2 76.5 83% 90 29.81 1009.5
02 21:51 Calm 15.00 Overcast FEW015 SCT050 BKN120 OVC300 82.2 76.6 83% 90 29.82 1009.9
02 20:52 Vrbl 5 15.00 Overcast FEW015 SCT050 BKN120 OVC300 83.1 77.2 82% 92 29.81 1009.6
02 19:54 Vrbl 5 15.00 Overcast FEW015 SCT050 BKN120 OVC300 83.1 76.3 80% 92 29.8 1009.0
02 18:50 Vrbl 3 15.00 Mostly Cloudy FEW015 SCT050 BKN300 83.3 77.2 82% 93 29.78 1008.4
02 17:51 Vrbl 3 15.00 Mostly Cloudy FEW015 SCT050 BKN300 83.1 76.3 88 83.1 80% 92 29.75 1007.6
02 16:52 Vrbl 3 15.00 Mostly Cloudy FEW015 SCT050 BKN300 83.8 77.4 81% 94 29.73 1006.9
02 15:53 Calm 15.00 Mostly Cloudy FEW015 SCT050 BKN300 85.8 76.8 75% 97 29.74 1007.0
02 14:52 NE 6 15.00 Overcast FEW015 SCT050 BKN120 OVC300 88 77.9 72% 101 29.73 1006.9
02 11:58 NE 3 15.00 Overcast FEW015 SCT050 BKN120 OVC300 85.1 77.2 87.6 81.5 77% 96 29.8 1009.1
02 10:58 NE 3 15.00 Overcast FEW015 SCT050 BKN120 OVC300 87.6 79.2 76% 103 29.82 1009.7
02 09:58 NE 3 15.00 Overcast FEW015 SCT050 BKN120 OVC300 85.8 78.3 78% 98 29.81 1009.5
02 08:58 Calm 15.00 Overcast FEW015 SCT050 BKN120 OVC300 83.8 78.1 83% 95 29.8 1009.2
02 07:58 NE 5 15.00 Overcast FEW015 SCT050 BKN120 OVC300 82.9 77.7 84% 93 29.79 1008.7
Date Time (+12) Wind (mph) Vis. (mi.) Weather Sky Cond. Air Dwpt Max. Min. Relative Humidity Wind Chill (°F) Heat Index (°F) altimeter (in) sea level (mb) 1 hr 3 hr 6 hr
6 hour
Temperature (ºF) Pressure Precipitation (in)